createdAt,value
2022-08-26T00:02:00.251Z,58.38
2022-08-26T00:04:27.289Z,58.42
2022-08-26T00:06:54.866Z,58.45
2022-08-26T00:09:23.175Z,58.31
2022-08-26T00:11:51.672Z,58.54
2022-08-26T00:14:31.168Z,58.47
2022-08-26T00:16:58.410Z,58.37
2022-08-26T00:19:25.479Z,58.52
2022-08-26T00:21:52.061Z,58.50
2022-08-26T00:24:20.820Z,58.52
2022-08-26T00:26:48.222Z,58.49
2022-08-26T00:29:24.631Z,58.07
2022-08-26T00:31:53.112Z,58.23
2022-08-26T00:34:19.770Z,58.20
2022-08-26T00:36:47.223Z,58.42
2022-08-26T00:39:15.766Z,58.22
2022-08-26T00:41:43.233Z,58.34
2022-08-26T00:44:11.001Z,58.36
2022-08-26T00:46:46.931Z,58.32
2022-08-26T00:49:16.728Z,58.50
2022-08-26T00:51:51.169Z,58.42
2022-08-26T00:54:20.776Z,58.31
2022-08-26T00:57:00.635Z,58.39
2022-08-26T00:59:29.167Z,58.08
2022-08-26T01:02:00.228Z,58.21
2022-08-26T01:04:30.700Z,58.21
2022-08-26T01:06:57.576Z,58.23
2022-08-26T01:09:24.369Z,58.13
2022-08-26T01:11:54.645Z,57.75
2022-08-26T01:14:22.533Z,57.83
2022-08-26T01:16:49.303Z,57.77
2022-08-26T01:19:21.786Z,57.82
2022-08-26T01:21:55.497Z,57.54
2022-08-26T01:24:21.953Z,57.60
2022-08-26T01:26:52.116Z,57.50
2022-08-26T01:29:20.175Z,57.69
2022-08-26T01:32:10.497Z,57.81
2022-08-26T01:34:38.657Z,57.80
2022-08-26T01:37:13.634Z,57.40
2022-08-26T01:39:45.116Z,57.79
2022-08-26T01:42:14.602Z,57.83
2022-08-26T01:45:06.311Z,57.93
2022-08-26T01:47:46.114Z,57.59
2022-08-26T01:50:28.180Z,58.18
2022-08-26T01:52:58.067Z,58.00
2022-08-26T01:55:33.432Z,58.00
2022-08-26T01:58:04.758Z,58.05
2022-08-26T02:00:41.618Z,58.38
2022-08-26T02:03:21.338Z,58.48
2022-08-26T02:05:55.027Z,58.34
2022-08-26T02:08:35.873Z,58.46
2022-08-26T02:11:02.548Z,58.54
2022-08-26T02:13:30.515Z,58.47
2022-08-26T02:15:58.183Z,58.63
2022-08-26T02:18:25.951Z,59.01
2022-08-26T02:20:53.610Z,58.61
2022-08-26T02:23:20.175Z,58.99
2022-08-26T02:26:00.790Z,59.22
2022-08-26T02:28:32.273Z,58.89
2022-08-26T02:30:58.916Z,59.29
2022-08-26T02:33:28.460Z,59.29
2022-08-26T02:35:54.930Z,59.19
2022-08-26T02:38:21.417Z,59.42
2022-08-26T02:40:48.181Z,59.19
2022-08-26T02:43:14.808Z,59.61
2022-08-26T02:45:41.884Z,59.51
2022-08-26T02:48:11.625Z,59.80
2022-08-26T02:50:39.314Z,59.86
2022-08-26T02:53:07.279Z,59.64
2022-08-26T02:55:34.487Z,59.67
2022-08-26T02:58:01.488Z,60.01
2022-08-26T03:00:29.501Z,59.80
2022-08-26T03:02:56.524Z,60.20
2022-08-26T03:05:24.069Z,60.33
2022-08-26T03:07:51.560Z,60.19
2022-08-26T03:10:18.406Z,60.41
2022-08-26T03:12:47.520Z,60.40
2022-08-26T03:15:17.900Z,60.29
2022-08-26T03:17:47.301Z,60.32
2022-08-26T03:20:17.497Z,60.67
2022-08-26T03:22:44.570Z,60.31
2022-08-26T03:25:13.510Z,60.24
2022-08-26T03:27:41.337Z,60.07
2022-08-26T03:30:29.101Z,60.59
2022-08-26T03:32:55.573Z,60.32
2022-08-26T03:35:22.417Z,60.43
2022-08-26T03:37:49.136Z,60.67
2022-08-26T03:40:23.000Z,60.89
2022-08-26T03:42:50.123Z,61.12
2022-08-26T03:45:17.865Z,61.20
2022-08-26T03:47:44.943Z,61.50
2022-08-26T03:50:14.028Z,61.35
2022-08-26T03:52:43.832Z,61.16
2022-08-26T03:55:10.965Z,61.15
2022-08-26T03:57:43.820Z,61.50
2022-08-26T04:00:18.389Z,61.76
2022-08-26T04:02:46.628Z,62.31
2022-08-26T04:05:17.381Z,62.51
2022-08-26T04:07:44.508Z,62.92
2022-08-26T04:10:12.743Z,63.16
2022-08-26T04:12:39.621Z,63.28
2022-08-26T04:15:08.056Z,63.25
2022-08-26T04:17:34.766Z,63.29
2022-08-26T04:20:02.619Z,63.47
2022-08-26T04:22:29.381Z,63.71
2022-08-26T04:24:55.991Z,63.51
2022-08-26T04:27:32.148Z,63.66
2022-08-26T04:30:25.315Z,64.10
2022-08-26T04:32:52.363Z,64.14
2022-08-26T04:35:25.459Z,64.08
2022-08-26T04:41:31.647Z,64.04
2022-08-26T04:43:58.341Z,64.15
2022-08-26T04:46:25.403Z,64.27
2022-08-26T04:48:53.350Z,64.17
2022-08-26T04:51:20.876Z,64.22
2022-08-26T04:53:47.483Z,64.29
2022-08-26T04:56:14.273Z,64.06
2022-08-26T04:59:05.143Z,64.18
2022-08-26T05:01:34.599Z,63.84
2022-08-26T05:04:07.986Z,63.66
2022-08-26T05:06:36.911Z,63.67
2022-08-26T05:09:03.884Z,64.13
2022-08-26T05:11:30.336Z,64.37
2022-08-26T05:14:01.663Z,64.48
2022-08-26T05:16:30.284Z,64.28
2022-08-26T05:18:57.489Z,64.20
2022-08-26T05:21:26.588Z,64.27
2022-08-26T05:23:56.547Z,64.18
2022-08-26T05:26:25.775Z,64.25
2022-08-26T05:28:54.839Z,64.34
2022-08-26T05:31:29.094Z,64.70
2022-08-26T05:33:57.448Z,64.78
2022-08-26T05:36:26.992Z,64.58
2022-08-26T05:38:54.369Z,64.22
2022-08-26T05:41:24.836Z,64.29
2022-08-26T05:43:51.981Z,63.85
2022-08-26T05:46:18.923Z,64.18
2022-08-26T05:48:46.086Z,64.45
2022-08-26T05:51:14.115Z,64.52
2022-08-26T05:53:43.810Z,64.77
2022-08-26T05:56:12.602Z,64.62
2022-08-26T05:58:41.020Z,65.04
2022-08-26T06:01:14.341Z,65.27
2022-08-26T06:03:46.790Z,64.99
2022-08-26T06:06:19.966Z,65.56
2022-08-26T06:08:47.558Z,65.09
2022-08-26T06:11:18.682Z,65.40
2022-08-26T06:13:45.929Z,65.09
2022-08-26T06:16:15.916Z,65.47
2022-08-26T06:18:44.677Z,65.30
2022-08-26T06:21:29.365Z,65.55
2022-08-26T06:24:17.541Z,65.82
2022-08-26T06:26:51.084Z,65.39
2022-08-26T06:29:24.653Z,65.36
2022-08-26T06:31:52.713Z,65.23
2022-08-26T06:34:19.428Z,65.47
2022-08-26T06:36:47.169Z,65.41
2022-08-26T06:39:15.841Z,65.33
2022-08-26T06:41:44.961Z,64.96
2022-08-26T06:44:17.528Z,65.38
2022-08-26T06:46:45.610Z,65.27
2022-08-26T06:49:12.846Z,64.92
2022-08-26T06:51:40.700Z,64.95
2022-08-26T06:54:07.760Z,65.20
2022-08-26T06:56:37.228Z,65.13
2022-08-26T06:59:04.037Z,65.14
2022-08-26T07:01:37.036Z,65.13
2022-08-26T07:04:07.902Z,64.56
2022-08-26T07:06:39.862Z,64.47
2022-08-26T07:09:09.964Z,64.86
2022-08-26T07:11:38.776Z,64.85
2022-08-26T07:14:06.555Z,64.77
2022-08-26T07:16:33.709Z,64.77
2022-08-26T07:19:03.580Z,64.61
2022-08-26T07:21:38.061Z,64.64
2022-08-26T07:24:04.625Z,64.12
2022-08-26T07:26:31.588Z,63.96
2022-08-26T07:28:59.645Z,63.99
2022-08-26T07:31:28.497Z,63.60
2022-08-26T07:33:56.830Z,63.04
2022-08-26T07:36:24.276Z,63.25
2022-08-26T07:38:51.601Z,63.26
2022-08-26T07:41:20.030Z,62.92
2022-08-26T07:43:46.621Z,62.84
2022-08-26T07:46:20.794Z,62.93
2022-08-26T07:48:53.874Z,62.73
2022-08-26T07:51:21.509Z,62.33
2022-08-26T07:53:52.806Z,61.99
2022-08-26T07:56:23.295Z,62.04
2022-08-26T07:58:53.457Z,61.57
2022-08-26T08:01:21.035Z,61.53
2022-08-26T08:03:51.225Z,61.29
2022-08-26T08:06:22.255Z,61.87
2022-08-26T08:08:50.928Z,62.17
2022-08-26T08:11:22.441Z,62.38
2022-08-26T08:13:56.298Z,61.90
2022-08-26T08:16:25.169Z,61.19
2022-08-26T08:18:53.335Z,61.03
2022-08-26T08:21:21.842Z,61.06
2022-08-26T08:23:51.769Z,60.80
2022-08-26T08:26:18.466Z,60.85
2022-08-26T08:28:46.159Z,60.88
2022-08-26T08:31:45.040Z,60.76
2022-08-26T08:34:09.106Z,61.36
2022-08-26T08:36:36.138Z,61.03
2022-08-26T08:39:03.217Z,60.98
2022-08-26T08:41:58.577Z,61.38
2022-08-26T08:47:16.212Z,64.02
2022-08-26T08:49:43.369Z,64.65
2022-08-26T08:52:28.963Z,65.52
2022-08-26T08:54:56.020Z,66.39
2022-08-26T08:57:32.811Z,67.16
2022-08-26T09:00:30.218Z,68.03
2022-08-26T09:03:10.775Z,67.73
2022-08-26T09:05:48.498Z,68.10
2022-08-26T09:08:19.731Z,68.53
2022-08-26T09:10:51.228Z,69.30
2022-08-26T09:13:26.281Z,71.40
2022-08-26T09:16:03.618Z,72.79
2022-08-26T09:18:37.341Z,73.92
2022-08-26T09:21:16.769Z,75.57
2022-08-26T09:23:47.055Z,76.52
2022-08-26T09:26:19.810Z,77.32
2022-08-26T09:28:49.625Z,77.94
2022-08-26T09:31:22.386Z,78.07
2022-08-26T09:34:06.053Z,78.17
2022-08-26T09:36:53.775Z,78.51
2022-08-26T09:39:23.508Z,79.17
2022-08-26T09:42:09.562Z,80.48
2022-08-26T09:44:56.555Z,81.29
2022-08-26T09:47:27.859Z,81.32
2022-08-26T09:50:34.129Z,82.55
2022-08-26T09:53:28.521Z,82.46
2022-08-26T09:56:18.898Z,83.14
2022-08-26T09:58:47.382Z,82.94
2022-08-26T10:01:25.936Z,84.06
2022-08-26T10:03:52.599Z,84.37
2022-08-26T10:06:23.631Z,84.13
2022-08-26T10:08:54.416Z,84.52
2022-08-26T10:11:24.803Z,84.89
2022-08-26T10:13:55.217Z,85.15
2022-08-26T10:16:25.454Z,85.09
2022-08-26T10:19:06.528Z,85.29
2022-08-26T10:21:54.797Z,85.50
2022-08-26T10:24:39.550Z,85.41
2022-08-26T10:27:14.651Z,85.45
2022-08-26T10:29:44.656Z,84.88
2022-08-26T10:32:26.822Z,85.06
2022-08-26T10:34:54.387Z,84.00
2022-08-26T10:37:23.398Z,84.42
2022-08-26T10:40:04.415Z,84.54
2022-08-26T10:42:40.840Z,84.45
2022-08-26T10:45:20.137Z,84.75
2022-08-26T10:47:57.261Z,84.85
2022-08-26T10:50:28.257Z,84.41
2022-08-26T10:53:19.486Z,84.57
2022-08-26T10:56:15.767Z,84.15
2022-08-26T10:58:51.331Z,84.20
2022-08-26T11:01:40.871Z,85.08
2022-08-26T11:04:35.007Z,85.21
2022-08-26T11:07:37.217Z,85.66
2022-08-26T11:10:45.158Z,85.90
2022-08-26T11:13:12.049Z,85.90
2022-08-26T11:15:38.433Z,86.10
2022-08-26T11:18:45.129Z,86.16
2022-08-26T11:22:02.164Z,85.55
2022-08-26T11:24:44.019Z,85.59
2022-08-26T11:27:36.681Z,85.88
2022-08-26T11:30:33.827Z,85.91
2022-08-26T11:33:00.831Z,85.90
2022-08-26T11:35:48.497Z,85.49
2022-08-26T11:38:18.603Z,84.48
2022-08-26T11:40:45.247Z,84.21
2022-08-26T11:43:21.949Z,84.12
2022-08-26T11:46:01.867Z,83.95
2022-08-26T11:48:34.754Z,84.06
2022-08-26T11:51:11.702Z,84.44
2022-08-26T11:53:42.964Z,83.64
2022-08-26T11:56:17.948Z,83.34
2022-08-26T11:58:48.116Z,83.07
2022-08-26T12:01:26.617Z,82.69
2022-08-26T12:03:55.145Z,80.29
2022-08-26T12:06:36.430Z,78.40
2022-08-26T12:09:12.110Z,78.62
2022-08-26T12:11:40.043Z,76.97
2022-08-26T12:14:09.619Z,74.92
2022-08-26T12:16:39.027Z,73.92
2022-08-26T12:19:26.299Z,71.59
2022-08-26T12:22:01.453Z,69.48
2022-08-26T12:24:28.109Z,68.15
2022-08-26T12:27:17.909Z,67.43
2022-08-26T12:29:44.597Z,67.88
2022-08-26T12:32:17.689Z,67.55
2022-08-26T12:34:45.668Z,66.57
2022-08-26T12:37:13.960Z,66.50
2022-08-26T12:39:41.960Z,66.82
2022-08-26T12:42:17.119Z,65.36
2022-08-26T12:44:53.871Z,64.81
2022-08-26T12:47:43.203Z,65.59
2022-08-26T12:50:31.291Z,64.72
2022-08-26T12:53:03.955Z,63.99
2022-08-26T12:55:51.953Z,63.01
2022-08-26T12:58:18.303Z,62.18
2022-08-26T13:00:48.365Z,61.65
2022-08-26T13:03:47.992Z,61.85
2022-08-26T13:06:23.291Z,61.03
2022-08-26T13:08:54.804Z,59.90
2022-08-26T13:11:28.925Z,59.62
2022-08-26T13:14:06.881Z,59.60
2022-08-26T13:16:34.264Z,59.92
2022-08-26T13:19:03.958Z,55.00
2022-08-26T13:21:37.502Z,54.34
2022-08-26T13:24:12.043Z,53.92
2022-08-26T13:26:39.843Z,52.94
2022-08-26T13:29:10.133Z,52.82
2022-08-26T13:31:39.362Z,52.54
2022-08-26T13:34:06.049Z,51.17
2022-08-26T13:36:32.714Z,50.71
2022-08-26T13:38:59.225Z,49.66
2022-08-26T13:41:29.121Z,48.23
2022-08-26T13:43:56.363Z,47.68
2022-08-26T13:46:22.875Z,47.71
2022-08-26T13:48:49.388Z,46.06
2022-08-26T13:51:18.492Z,47.15
2022-08-26T13:53:44.955Z,46.71
2022-08-26T13:56:11.416Z,46.26
2022-08-26T13:58:37.878Z,45.15
2022-08-26T14:01:10.767Z,44.26
2022-08-26T14:03:37.502Z,44.50
2022-08-26T14:06:04.110Z,44.81
2022-08-26T14:08:32.144Z,45.68
2022-08-26T14:10:59.277Z,45.15
2022-08-26T14:13:25.890Z,44.58
2022-08-26T14:15:52.806Z,42.80
2022-08-26T14:18:22.669Z,43.49
2022-08-26T14:20:52.827Z,43.90
2022-08-26T14:23:19.305Z,42.31
2022-08-26T14:25:45.797Z,42.77
2022-08-26T14:28:12.352Z,43.25
2022-08-26T14:30:42.794Z,43.61
2022-08-26T14:33:12.738Z,43.79
2022-08-26T14:35:39.504Z,43.47
2022-08-26T14:38:06.153Z,44.42
2022-08-26T14:40:34.021Z,45.12
2022-08-26T14:43:05.360Z,45.41
2022-08-26T14:45:32.834Z,46.05
2022-08-26T14:47:59.751Z,46.02
2022-08-26T14:50:26.318Z,46.30
2022-08-26T14:53:11.455Z,46.56
2022-08-26T14:55:40.471Z,47.10
2022-08-26T14:58:08.344Z,46.98
2022-08-26T15:00:36.141Z,47.55
2022-08-26T15:03:33.776Z,47.78
2022-08-26T15:06:00.698Z,47.65
2022-08-26T15:11:32.916Z,47.44
2022-08-26T15:14:19.369Z,47.52
2022-08-26T15:16:49.650Z,47.17
2022-08-26T15:19:25.839Z,46.94
2022-08-26T15:21:52.556Z,46.93
2022-08-26T15:24:58.522Z,47.49
2022-08-26T15:27:25.314Z,47.46
2022-08-26T15:29:51.847Z,45.94
2022-08-26T15:32:18.605Z,44.80
2022-08-26T15:34:52.453Z,43.75
2022-08-26T15:37:27.980Z,42.64
2022-08-26T15:39:59.195Z,42.43
2022-08-26T15:42:32.775Z,42.11
2022-08-26T15:45:05.769Z,41.84
2022-08-26T15:48:05.608Z,44.48
2022-08-26T15:50:33.571Z,46.23
2022-08-26T15:53:01.315Z,47.00
2022-08-26T15:55:27.754Z,47.28
2022-08-26T15:57:55.545Z,47.23
2022-08-26T16:00:39.817Z,48.07
2022-08-26T16:03:31.763Z,48.44
2022-08-26T16:05:58.415Z,48.77
2022-08-26T16:08:25.337Z,49.58
2022-08-26T16:10:55.408Z,49.45
2022-08-26T16:13:51.546Z,50.00
2022-08-26T16:16:19.830Z,50.50
2022-08-26T16:18:50.452Z,50.51
2022-08-26T16:21:36.686Z,50.36
2022-08-26T16:24:39.539Z,50.47
2022-08-26T16:27:06.769Z,51.40
2022-08-26T16:29:40.432Z,50.96
2022-08-26T16:32:08.791Z,50.66
2022-08-26T16:34:37.681Z,51.12
2022-08-26T16:37:20.893Z,50.99
2022-08-26T16:40:05.963Z,51.76
2022-08-26T16:42:33.137Z,51.80
2022-08-26T16:44:59.680Z,52.00
2022-08-26T16:47:26.303Z,52.68
2022-08-26T16:49:53.058Z,53.01
2022-08-26T16:52:19.561Z,53.07
2022-08-26T16:54:46.015Z,53.19
2022-08-26T16:57:12.943Z,53.67
2022-08-26T16:59:40.189Z,53.00
2022-08-26T17:02:07.616Z,53.03
2022-08-26T17:04:34.147Z,53.26
2022-08-26T17:07:00.647Z,53.71
2022-08-26T17:09:27.135Z,53.98
2022-08-26T17:11:54.251Z,54.08
2022-08-26T17:14:21.244Z,53.64
2022-08-26T17:16:51.045Z,53.73
2022-08-26T17:19:19.129Z,54.08
2022-08-26T17:21:46.223Z,54.67
2022-08-26T17:24:12.744Z,54.87
2022-08-26T17:26:39.238Z,54.82
2022-08-26T17:29:07.371Z,54.94
2022-08-26T17:31:34.591Z,54.84
2022-08-26T17:34:01.111Z,55.07
2022-08-26T17:36:28.476Z,55.23
2022-08-26T17:38:55.904Z,55.34
2022-08-26T17:41:22.367Z,55.49
2022-08-26T17:43:48.830Z,55.50
2022-08-26T17:46:15.471Z,55.85
2022-08-26T17:48:42.098Z,55.97
2022-08-26T17:51:10.988Z,56.17
2022-08-26T17:53:37.364Z,56.43
2022-08-26T17:56:12.568Z,56.76
2022-08-26T17:58:39.875Z,57.29
2022-08-26T18:01:06.555Z,57.20
2022-08-26T18:03:33.555Z,57.22
2022-08-26T18:06:00.016Z,57.37
2022-08-26T18:08:26.665Z,57.70
2022-08-26T18:10:53.169Z,57.66
2022-08-26T18:13:19.623Z,57.72
2022-08-26T18:15:46.949Z,58.03
2022-08-26T18:18:14.464Z,58.25
2022-08-26T18:20:42.865Z,58.31
2022-08-26T18:23:09.652Z,58.25
2022-08-26T18:25:40.394Z,58.60
2022-08-26T18:28:07.429Z,58.45
2022-08-26T18:30:34.278Z,58.50
2022-08-26T18:33:01.002Z,58.47
2022-08-26T18:35:29.763Z,58.42
2022-08-26T18:37:57.452Z,58.66
2022-08-26T18:40:27.982Z,59.21
2022-08-26T18:42:54.503Z,59.72
2022-08-26T18:51:34.235Z,64.31
2022-08-26T18:54:06.828Z,65.78
2022-08-26T18:56:35.385Z,67.62
2022-08-26T18:59:08.675Z,68.41
2022-08-26T19:01:36.341Z,69.82
2022-08-26T19:04:04.790Z,71.04
2022-08-26T19:06:33.022Z,71.95
2022-08-26T19:09:03.122Z,72.70
2022-08-26T19:11:32.333Z,73.05
2022-08-26T19:14:07.372Z,73.84
2022-08-26T19:16:34.015Z,74.43
2022-08-26T19:19:01.776Z,74.39
2022-08-26T19:21:29.511Z,74.80
2022-08-26T19:23:57.930Z,75.34
2022-08-26T19:42:43.618Z,77.78
2022-08-26T19:45:24.548Z,78.77
2022-08-26T19:47:52.881Z,78.99
2022-08-26T19:50:20.458Z,79.32
2022-08-26T19:53:15.677Z,79.25
2022-08-26T19:55:57.653Z,78.62
2022-08-26T19:58:24.119Z,78.58
2022-08-26T20:01:43.836Z,79.19
2022-08-26T20:04:47.269Z,78.51
2022-08-26T20:07:20.521Z,78.39
2022-08-26T20:09:48.222Z,78.20
2022-08-26T20:12:41.601Z,78.27
2022-08-26T20:15:15.867Z,77.91
2022-08-26T20:17:43.536Z,77.62
2022-08-26T20:20:33.243Z,77.43
2022-08-26T20:23:36.934Z,77.13
2022-08-26T20:26:03.969Z,77.18
2022-08-26T20:28:34.925Z,76.93
2022-08-26T20:31:02.179Z,77.52
2022-08-26T20:34:19.773Z,77.47
2022-08-26T20:40:08.682Z,77.54
2022-08-26T20:42:35.614Z,77.28
2022-08-26T20:45:03.155Z,77.74
2022-08-26T20:52:40.966Z,77.58
2022-08-26T20:55:07.923Z,77.67
2022-08-26T20:57:41.910Z,77.40
2022-08-26T21:00:11.814Z,77.06
2022-08-26T21:02:46.364Z,76.69
2022-08-26T21:05:12.971Z,76.71
2022-08-26T21:07:39.550Z,77.42
2022-08-26T21:14:26.131Z,77.57
2022-08-26T21:16:53.240Z,77.95
2022-08-26T21:19:19.860Z,77.54
2022-08-26T21:21:52.488Z,77.87
2022-08-26T21:24:19.811Z,77.83
2022-08-26T21:26:46.651Z,77.74
2022-08-26T21:30:16.623Z,77.37
2022-08-26T21:32:46.396Z,77.17
2022-08-26T21:35:12.953Z,77.29
2022-08-26T21:37:45.255Z,77.27
2022-08-26T21:40:12.245Z,77.28
2022-08-26T21:43:16.593Z,77.08
2022-08-26T21:46:14.351Z,76.94
2022-08-26T21:48:56.969Z,76.76
2022-08-26T21:51:30.224Z,76.58
2022-08-26T21:53:57.730Z,76.68
2022-08-26T21:56:56.816Z,76.31
2022-08-26T21:59:25.634Z,76.19
2022-08-26T22:01:52.163Z,76.28
2022-08-26T22:04:18.640Z,76.17
2022-08-26T22:06:47.646Z,76.70
2022-08-26T22:10:19.113Z,76.78
2022-08-26T22:12:46.079Z,76.24
2022-08-26T22:15:13.164Z,76.48
2022-08-26T22:17:48.648Z,76.84
2022-08-26T22:20:16.472Z,77.15
2022-08-26T22:22:43.346Z,76.98
2022-08-26T22:25:10.006Z,77.44
2022-08-26T22:27:40.451Z,77.67
2022-08-26T22:30:11.812Z,77.49
2022-08-26T22:37:08.935Z,77.25
2022-08-26T22:39:39.815Z,77.67
2022-08-26T22:42:57.935Z,77.59
2022-08-26T22:45:41.258Z,77.53
2022-08-26T22:48:08.627Z,76.84
2022-08-26T22:50:44.104Z,77.00
2022-08-26T22:53:35.236Z,77.09
2022-08-26T22:56:26.405Z,77.08
2022-08-26T22:58:52.947Z,77.01
2022-08-26T23:01:19.482Z,77.17
2022-08-26T23:04:05.264Z,77.08
2022-08-26T23:06:57.208Z,76.55
2022-08-26T23:09:24.194Z,76.63
2022-08-26T23:11:55.984Z,76.26
2022-08-26T23:14:39.346Z,76.18
2022-08-26T23:17:14.253Z,76.30
2022-08-26T23:19:41.936Z,76.35
2022-08-26T23:22:33.772Z,75.66
2022-08-26T23:25:02.342Z,75.85
2022-08-26T23:27:36.223Z,75.91
2022-08-26T23:30:05.248Z,75.73
2022-08-26T23:32:31.767Z,76.00
2022-08-26T23:35:21.596Z,76.13
2022-08-26T23:37:51.174Z,76.18
2022-08-26T23:40:22.991Z,76.08
2022-08-26T23:42:51.821Z,75.91
2022-08-26T23:45:19.895Z,76.14
2022-08-26T23:47:58.437Z,76.15
2022-08-26T23:56:00.731Z,76.24
2022-08-26T23:58:45.010Z,75.98
